createdAt,value
2024-01-26T00:00:04.242Z,7.21
2024-01-26T00:01:04.429Z,7.20
2024-01-26T00:02:04.341Z,7.17
2024-01-26T00:03:04.301Z,7.17
2024-01-26T00:04:04.373Z,7.20
2024-01-26T00:05:04.691Z,7.20
2024-01-26T00:06:04.419Z,7.18
2024-01-26T00:07:04.420Z,7.20
2024-01-26T00:08:06.435Z,7.20
2024-01-26T00:09:04.408Z,7.20
2024-01-26T00:10:04.580Z,7.23
2024-01-26T00:11:04.465Z,7.23
2024-01-26T00:12:04.453Z,7.25
2024-01-26T00:13:04.681Z,7.29
2024-01-26T00:14:04.489Z,7.31
2024-01-26T00:15:04.532Z,7.32
2024-01-26T00:16:04.723Z,7.32
2024-01-26T00:17:04.544Z,7.36
2024-01-26T00:18:04.667Z,7.38
2024-01-26T00:19:04.599Z,7.39
2024-01-26T00:20:04.645Z,7.40
2024-01-26T00:21:04.626Z,7.42
2024-01-26T00:22:04.833Z,7.40
2024-01-26T00:23:04.636Z,7.39
2024-01-26T00:24:04.659Z,7.39
2024-01-26T00:25:04.832Z,7.39
2024-01-26T00:26:04.696Z,7.40
2024-01-26T00:27:04.708Z,7.43
2024-01-26T00:28:04.765Z,7.45
2024-01-26T00:29:04.780Z,7.50
2024-01-26T00:30:04.784Z,7.50
2024-01-26T00:31:04.816Z,7.50
2024-01-26T00:32:04.813Z,7.50
2024-01-26T00:33:04.871Z,7.45
2024-01-26T00:34:04.907Z,7.43
2024-01-26T00:35:04.940Z,7.40
2024-01-26T00:36:04.892Z,7.39
2024-01-26T00:37:05.088Z,7.38
2024-01-26T00:38:04.898Z,7.36
2024-01-26T00:39:04.926Z,7.35
2024-01-26T00:40:04.963Z,7.35
2024-01-26T00:41:04.959Z,7.33
2024-01-26T00:42:04.980Z,7.33
2024-01-26T00:43:05.217Z,7.32
2024-01-26T00:44:05.159Z,7.29
2024-01-26T00:45:05.048Z,7.29
2024-01-26T00:46:05.239Z,7.24
2024-01-26T00:47:05.101Z,7.24
2024-01-26T00:48:05.198Z,7.23
2024-01-26T00:49:05.188Z,7.23
2024-01-26T00:50:05.194Z,7.25
2024-01-26T00:51:05.135Z,7.24
2024-01-26T00:52:05.172Z,7.20
2024-01-26T00:53:05.192Z,7.18
2024-01-26T00:54:05.191Z,7.20
2024-01-26T00:55:05.268Z,7.18
2024-01-26T00:56:05.211Z,7.18
2024-01-26T00:57:05.248Z,7.20
2024-01-26T00:58:05.302Z,7.20
2024-01-26T00:59:05.257Z,7.21
2024-01-26T01:00:05.262Z,7.20
2024-01-26T01:01:05.514Z,7.24
2024-01-26T01:02:05.537Z,7.29
2024-01-26T01:03:05.336Z,7.31
2024-01-26T01:04:05.346Z,7.32
2024-01-26T01:05:05.386Z,7.33
2024-01-26T01:06:05.528Z,7.32
2024-01-26T01:07:05.451Z,7.32
2024-01-26T01:08:05.431Z,7.31
2024-01-26T01:09:05.544Z,7.32
2024-01-26T01:10:05.461Z,7.32
2024-01-26T01:11:05.511Z,7.32
2024-01-26T01:12:05.539Z,7.33
2024-01-26T01:13:05.508Z,7.32
2024-01-26T01:14:05.524Z,7.32
2024-01-26T01:15:05.609Z,7.33
2024-01-26T01:16:05.590Z,7.32
2024-01-26T01:17:05.585Z,7.32
2024-01-26T01:18:05.711Z,7.33
2024-01-26T01:19:05.847Z,7.35
2024-01-26T01:20:05.788Z,7.35
2024-01-26T01:21:05.721Z,7.35
2024-01-26T01:22:05.678Z,7.36
2024-01-26T01:23:05.706Z,7.38
2024-01-26T01:24:05.835Z,7.36
2024-01-26T01:25:05.766Z,7.36
2024-01-26T01:26:05.742Z,7.35
2024-01-26T01:27:05.883Z,7.36
2024-01-26T01:28:05.781Z,7.36
2024-01-26T01:29:05.789Z,7.39
2024-01-26T01:30:05.943Z,7.40
2024-01-26T01:31:05.900Z,7.43
2024-01-26T01:32:05.902Z,7.45
2024-01-26T01:33:06.127Z,7.43
2024-01-26T01:34:06.296Z,7.45
2024-01-26T01:35:05.955Z,7.47
2024-01-26T01:36:06.028Z,7.48
2024-01-26T01:37:05.933Z,7.48
2024-01-26T01:38:05.950Z,7.48
2024-01-26T01:39:06.240Z,7.50
2024-01-26T01:40:06.045Z,7.50
2024-01-26T01:41:06.082Z,7.50
2024-01-26T01:42:06.039Z,7.51
2024-01-26T01:43:06.048Z,7.53
2024-01-26T01:44:06.054Z,7.51
2024-01-26T01:45:06.076Z,7.51
2024-01-26T01:46:06.092Z,7.50
2024-01-26T01:47:06.100Z,7.50
2024-01-26T01:48:06.243Z,7.48
2024-01-26T01:49:06.279Z,7.50
2024-01-26T01:50:06.150Z,7.51
2024-01-26T01:51:06.224Z,7.54
2024-01-26T01:52:06.193Z,7.57
2024-01-26T01:53:06.231Z,7.58
2024-01-26T01:54:06.262Z,7.57
2024-01-26T01:55:06.255Z,7.57
2024-01-26T01:56:06.261Z,7.57
2024-01-26T01:57:06.333Z,7.56
2024-01-26T01:58:06.392Z,7.54
2024-01-26T01:59:06.319Z,7.53
2024-01-26T02:00:06.424Z,7.53
2024-01-26T02:01:06.404Z,7.54
2024-01-26T02:02:06.378Z,7.56
2024-01-26T02:03:06.448Z,7.54
2024-01-26T02:04:06.395Z,7.54
2024-01-26T02:05:06.480Z,7.57
2024-01-26T02:06:06.521Z,7.56
2024-01-26T02:07:06.480Z,7.56
2024-01-26T02:08:06.465Z,7.56
2024-01-26T02:09:06.502Z,7.56
2024-01-26T02:10:06.500Z,7.57
2024-01-26T02:11:06.526Z,7.54
2024-01-26T02:12:06.598Z,7.54
2024-01-26T02:13:06.563Z,7.53
2024-01-26T02:14:06.581Z,7.51
2024-01-26T02:15:06.692Z,7.50
2024-01-26T02:16:06.638Z,7.53
2024-01-26T02:17:06.656Z,7.56
2024-01-26T02:18:06.730Z,7.56
2024-01-26T02:19:06.785Z,7.54
2024-01-26T02:20:06.699Z,7.54
2024-01-26T02:21:06.744Z,7.53
2024-01-26T02:22:06.736Z,7.54
2024-01-26T02:23:06.752Z,7.53
2024-01-26T02:24:06.853Z,7.53
2024-01-26T02:25:06.787Z,7.51
2024-01-26T02:26:06.803Z,7.50
2024-01-26T02:27:06.947Z,7.51
2024-01-26T02:28:06.852Z,7.50
2024-01-26T02:29:06.848Z,7.53
2024-01-26T02:30:06.970Z,7.53
2024-01-26T02:31:06.930Z,7.53
2024-01-26T02:32:06.911Z,7.54
2024-01-26T02:33:06.981Z,7.54
2024-01-26T02:34:07.182Z,7.54
2024-01-26T02:35:06.962Z,7.54
2024-01-26T02:36:07.055Z,7.56
2024-01-26T02:37:06.984Z,7.57
2024-01-26T02:38:07.016Z,7.58
2024-01-26T02:39:07.183Z,7.60
2024-01-26T02:40:07.066Z,7.60
2024-01-26T02:41:07.049Z,7.60
2024-01-26T02:42:07.205Z,7.61
2024-01-26T02:43:07.097Z,7.61
2024-01-26T02:44:07.133Z,7.61
2024-01-26T02:45:07.221Z,7.61
2024-01-26T02:46:07.149Z,7.63
2024-01-26T02:47:07.159Z,7.61
2024-01-26T02:48:07.376Z,7.61
2024-01-26T02:49:07.516Z,7.61
2024-01-26T02:50:07.210Z,7.60
2024-01-26T02:51:07.356Z,7.61
2024-01-26T02:52:07.249Z,7.60
2024-01-26T02:53:07.267Z,7.58
2024-01-26T02:54:07.414Z,7.57
2024-01-26T02:55:07.322Z,7.54
2024-01-26T02:56:07.337Z,7.56
2024-01-26T02:57:07.424Z,7.56
2024-01-26T02:58:07.349Z,7.56
2024-01-26T02:59:07.386Z,7.56
2024-01-26T03:00:07.395Z,7.57
2024-01-26T03:01:07.435Z,7.56
2024-01-26T03:02:07.416Z,7.57
2024-01-26T03:03:07.591Z,7.54
2024-01-26T03:04:07.518Z,7.56
2024-01-26T03:05:07.463Z,7.54
2024-01-26T03:06:07.561Z,7.56
2024-01-26T03:07:07.672Z,7.57
2024-01-26T03:08:07.524Z,7.57
2024-01-26T03:09:07.603Z,7.58
2024-01-26T03:10:07.595Z,7.58
2024-01-26T03:11:07.585Z,7.58
2024-01-26T03:12:07.683Z,7.57
2024-01-26T03:13:07.604Z,7.56
2024-01-26T03:14:07.641Z,7.57
2024-01-26T03:15:07.786Z,7.58
2024-01-26T03:16:07.689Z,7.58
2024-01-26T03:17:07.714Z,7.58
2024-01-26T03:18:07.787Z,7.58
2024-01-26T03:19:07.828Z,7.60
2024-01-26T03:20:07.810Z,7.58
2024-01-26T03:21:07.920Z,7.60
2024-01-26T03:22:07.789Z,7.61
2024-01-26T03:23:07.801Z,7.61
2024-01-26T03:24:07.900Z,7.63
2024-01-26T03:25:07.853Z,7.63
2024-01-26T03:26:07.872Z,7.63
2024-01-26T03:27:08.092Z,7.66
2024-01-26T03:28:07.899Z,7.63
2024-01-26T03:29:07.910Z,7.63
2024-01-26T03:30:08.044Z,7.66
2024-01-26T03:31:07.966Z,7.61
2024-01-26T03:32:07.972Z,7.63
2024-01-26T03:33:08.102Z,7.66
2024-01-26T03:34:08.158Z,7.67
2024-01-26T03:35:08.053Z,7.67
2024-01-26T03:36:10.371Z,7.70
2024-01-26T03:37:08.055Z,7.69
2024-01-26T03:38:08.087Z,7.69
2024-01-26T03:39:08.164Z,7.69
2024-01-26T03:40:08.135Z,7.69
2024-01-26T03:41:08.163Z,7.70
2024-01-26T03:42:08.206Z,7.69
2024-01-26T03:43:08.161Z,7.67
2024-01-26T03:44:08.296Z,7.67
2024-01-26T03:45:08.381Z,7.69
2024-01-26T03:46:08.234Z,7.70
2024-01-26T03:47:08.264Z,7.67
2024-01-26T03:48:08.324Z,7.67
2024-01-26T03:49:08.436Z,7.67
2024-01-26T03:50:08.296Z,7.67
2024-01-26T03:51:08.523Z,7.63
2024-01-26T03:52:08.394Z,7.63
2024-01-26T03:53:08.320Z,7.61
2024-01-26T03:54:08.625Z,7.63
2024-01-26T03:55:08.720Z,7.63
2024-01-26T03:56:08.381Z,7.63
2024-01-26T03:57:08.618Z,7.63
2024-01-26T03:58:08.430Z,7.63
2024-01-26T03:59:08.456Z,7.61
2024-01-26T04:00:08.483Z,7.61
2024-01-26T04:01:08.474Z,7.60
2024-01-26T04:02:08.482Z,7.58
2024-01-26T04:03:08.638Z,7.58
2024-01-26T04:04:08.826Z,7.58
2024-01-26T04:05:08.528Z,7.58
2024-01-26T04:06:08.612Z,7.58
2024-01-26T04:07:08.707Z,7.58
2024-01-26T04:08:08.593Z,7.58
2024-01-26T04:09:08.643Z,7.60
2024-01-26T04:10:08.622Z,7.57
2024-01-26T04:11:08.662Z,7.56
2024-01-26T04:12:08.763Z,7.54
2024-01-26T04:13:08.676Z,7.54
2024-01-26T04:14:08.677Z,7.54
2024-01-26T04:15:08.852Z,7.54
2024-01-26T04:16:08.711Z,7.53
2024-01-26T04:17:08.745Z,7.54
2024-01-26T04:18:08.874Z,7.56
2024-01-26T04:19:08.890Z,7.54
2024-01-26T04:20:08.765Z,7.54
2024-01-26T04:21:08.907Z,7.54
2024-01-26T04:22:08.814Z,7.53
2024-01-26T04:23:08.821Z,7.53
2024-01-26T04:24:08.951Z,7.50
2024-01-26T04:25:08.852Z,7.50
2024-01-26T04:26:08.926Z,7.47
2024-01-26T04:27:09.033Z,7.45
2024-01-26T04:28:08.915Z,7.45
2024-01-26T04:29:08.921Z,7.43
2024-01-26T04:30:08.985Z,7.43
2024-01-26T04:31:09.008Z,7.40
2024-01-26T04:32:08.995Z,7.42
2024-01-26T04:33:09.215Z,7.40
2024-01-26T04:34:09.308Z,7.40
2024-01-26T04:35:09.021Z,7.40
2024-01-26T04:36:09.121Z,7.40
2024-01-26T04:37:09.069Z,7.40
2024-01-26T04:38:09.078Z,7.40
2024-01-26T04:39:09.160Z,7.39
2024-01-26T04:40:09.101Z,7.38
2024-01-26T04:41:09.134Z,7.40
2024-01-26T04:42:09.361Z,7.40
2024-01-26T04:43:09.153Z,7.39
2024-01-26T04:44:09.158Z,7.38
2024-01-26T04:45:09.298Z,7.38
2024-01-26T04:46:09.215Z,7.36
2024-01-26T04:47:09.215Z,7.36
2024-01-26T04:48:09.360Z,7.36
2024-01-26T04:49:09.484Z,7.38
2024-01-26T04:50:09.288Z,7.38
2024-01-26T04:51:09.451Z,7.38
2024-01-26T04:52:09.300Z,7.40
2024-01-26T04:53:09.324Z,7.42
2024-01-26T04:54:09.418Z,7.43
2024-01-26T04:55:09.501Z,7.42
2024-01-26T04:56:09.361Z,7.40
2024-01-26T04:57:09.497Z,7.39
2024-01-26T04:58:09.405Z,7.40
2024-01-26T04:59:09.456Z,7.40
2024-01-26T05:00:09.496Z,7.40
2024-01-26T05:01:09.532Z,7.42
2024-01-26T05:02:09.472Z,7.42
2024-01-26T05:03:12.779Z,7.42
2024-01-26T05:04:09.573Z,7.42
2024-01-26T05:05:09.538Z,7.43
2024-01-26T05:06:09.684Z,7.43
2024-01-26T05:07:09.796Z,7.42
2024-01-26T05:08:09.578Z,7.42
2024-01-26T05:09:09.733Z,7.43
2024-01-26T05:10:09.648Z,7.43
2024-01-26T05:11:09.635Z,7.43
2024-01-26T05:12:09.792Z,7.43
2024-01-26T05:13:09.696Z,7.42
2024-01-26T05:14:09.699Z,7.42
2024-01-26T05:15:09.765Z,7.42
2024-01-26T05:16:09.741Z,7.42
2024-01-26T05:17:09.738Z,7.42
2024-01-26T05:18:10.041Z,7.42
2024-01-26T05:19:09.942Z,7.40
2024-01-26T05:20:09.837Z,7.42
2024-01-26T05:21:09.881Z,7.43
2024-01-26T05:22:09.815Z,7.47
2024-01-26T05:23:09.869Z,7.50
2024-01-26T05:24:09.912Z,7.51
2024-01-26T05:25:09.878Z,7.54
2024-01-26T05:26:09.880Z,7.54
2024-01-26T05:27:10.061Z,7.54
2024-01-26T05:28:09.940Z,7.54
2024-01-26T05:29:09.945Z,7.53
2024-01-26T05:30:10.200Z,7.53
2024-01-26T05:31:09.981Z,7.50
2024-01-26T05:32:10.015Z,7.48
2024-01-26T05:33:10.145Z,7.48
2024-01-26T05:34:10.312Z,7.48
2024-01-26T05:35:10.047Z,7.50
2024-01-26T05:36:10.165Z,7.51
2024-01-26T05:37:10.111Z,7.50
2024-01-26T05:38:10.102Z,7.48
2024-01-26T05:39:10.228Z,7.48
2024-01-26T05:40:10.148Z,7.47
2024-01-26T05:41:10.186Z,7.45
2024-01-26T05:42:10.301Z,7.45
2024-01-26T05:43:10.209Z,7.45
2024-01-26T05:44:10.258Z,7.45
2024-01-26T05:45:10.274Z,7.47
2024-01-26T05:46:10.275Z,7.43
2024-01-26T05:47:10.280Z,7.45
2024-01-26T05:48:10.411Z,7.43
2024-01-26T05:49:10.482Z,7.40
2024-01-26T05:50:10.438Z,7.40
2024-01-26T05:51:10.529Z,7.42
2024-01-26T05:52:10.363Z,7.42
2024-01-26T05:53:10.380Z,7.42
2024-01-26T05:54:10.451Z,7.42
2024-01-26T05:55:10.415Z,7.42
2024-01-26T05:56:10.426Z,7.40
2024-01-26T05:57:10.517Z,7.40
2024-01-26T05:58:10.443Z,7.40
2024-01-26T05:59:10.470Z,7.39
2024-01-26T06:00:10.550Z,7.38
2024-01-26T06:01:10.544Z,7.38
2024-01-26T06:02:10.537Z,7.39
2024-01-26T06:03:10.699Z,7.43
2024-01-26T06:04:10.595Z,7.42
2024-01-26T06:05:10.596Z,7.42
2024-01-26T06:06:10.686Z,7.42
2024-01-26T06:07:10.697Z,7.40
2024-01-26T06:08:10.619Z,7.40
2024-01-26T06:09:10.714Z,7.39
2024-01-26T06:10:10.665Z,7.35
2024-01-26T06:11:10.683Z,7.35
2024-01-26T06:12:10.729Z,7.32
2024-01-26T06:13:10.698Z,7.32
2024-01-26T06:14:10.736Z,7.31
2024-01-26T06:15:10.931Z,7.29
2024-01-26T06:16:10.743Z,7.29
2024-01-26T06:17:10.782Z,7.29
2024-01-26T06:18:10.930Z,7.29
2024-01-26T06:19:10.956Z,7.29
2024-01-26T06:20:10.850Z,7.25
2024-01-26T06:21:10.951Z,7.25
2024-01-26T06:22:10.896Z,7.25
2024-01-26T06:23:10.880Z,7.24
2024-01-26T06:24:10.994Z,7.25
2024-01-26T06:25:10.931Z,7.28
2024-01-26T06:26:10.938Z,7.25
2024-01-26T06:27:14.152Z,7.25
2024-01-26T06:28:10.989Z,7.24
2024-01-26T06:29:10.995Z,7.23
2024-01-26T06:30:11.048Z,7.23
2024-01-26T06:31:11.032Z,7.23
2024-01-26T06:32:11.035Z,7.23
2024-01-26T06:33:11.213Z,7.25
2024-01-26T06:34:11.281Z,7.28
2024-01-26T06:35:11.105Z,7.31
2024-01-26T06:36:11.186Z,7.31
2024-01-26T06:37:11.146Z,7.31
2024-01-26T06:38:11.173Z,7.33
2024-01-26T06:39:11.229Z,7.35
2024-01-26T06:40:11.191Z,7.36
2024-01-26T06:41:11.214Z,7.40
2024-01-26T06:42:11.307Z,7.39
2024-01-26T06:43:11.297Z,7.36
2024-01-26T06:44:11.249Z,7.36
2024-01-26T06:45:11.429Z,7.36
2024-01-26T06:46:11.279Z,7.36
2024-01-26T06:47:11.327Z,7.36
2024-01-26T06:48:11.450Z,7.35
2024-01-26T06:49:11.477Z,7.35
2024-01-26T06:50:14.224Z,7.35
2024-01-26T06:51:11.491Z,7.33
2024-01-26T06:52:11.399Z,7.35
2024-01-26T06:53:11.409Z,7.33
2024-01-26T06:54:11.509Z,7.33
2024-01-26T06:55:11.440Z,7.35
2024-01-26T06:56:11.468Z,7.36
2024-01-26T06:57:11.620Z,7.36
2024-01-26T06:58:11.492Z,7.36
2024-01-26T06:59:11.511Z,7.38
2024-01-26T07:00:11.543Z,7.40
2024-01-26T07:01:11.594Z,7.39
2024-01-26T07:02:11.550Z,7.40
2024-01-26T07:03:11.659Z,7.40
2024-01-26T07:04:11.660Z,7.43
2024-01-26T07:05:11.593Z,7.43
2024-01-26T07:06:11.747Z,7.42
2024-01-26T07:07:11.878Z,7.40
2024-01-26T07:08:11.654Z,7.43
2024-01-26T07:09:11.662Z,7.45
2024-01-26T07:10:11.700Z,7.43
2024-01-26T07:11:11.687Z,7.43
2024-01-26T07:12:11.754Z,7.42
2024-01-26T07:13:11.712Z,7.43
2024-01-26T07:14:13.526Z,7.43
2024-01-26T07:15:11.829Z,7.43
2024-01-26T07:16:11.766Z,7.43
2024-01-26T07:17:11.778Z,7.43
2024-01-26T07:18:11.919Z,7.43
2024-01-26T07:19:11.956Z,7.45
2024-01-26T07:20:11.915Z,7.47
2024-01-26T07:21:11.990Z,7.48
2024-01-26T07:22:11.857Z,7.51
2024-01-26T07:23:11.887Z,7.51
2024-01-26T07:24:12.027Z,7.51
2024-01-26T07:25:11.923Z,7.53
2024-01-26T07:26:12.211Z,7.53
2024-01-26T07:27:12.095Z,7.51
2024-01-26T07:28:11.970Z,7.53
2024-01-26T07:29:12.007Z,7.54
2024-01-26T07:30:12.089Z,7.54
2024-01-26T07:31:12.026Z,7.57
2024-01-26T07:32:12.029Z,7.58
2024-01-26T07:33:12.152Z,7.60
2024-01-26T07:34:12.244Z,7.58
2024-01-26T07:35:12.101Z,7.58
2024-01-26T07:36:12.169Z,7.58
2024-01-26T07:37:12.121Z,7.60
2024-01-26T07:38:12.161Z,7.63
2024-01-26T07:39:12.189Z,7.67
2024-01-26T07:40:12.162Z,7.69
2024-01-26T07:41:12.160Z,7.67
2024-01-26T07:42:12.281Z,7.67
2024-01-26T07:43:12.195Z,7.67
2024-01-26T07:44:12.221Z,7.67
2024-01-26T07:45:12.335Z,7.67
2024-01-26T07:46:12.235Z,7.67
2024-01-26T07:47:12.264Z,7.70
2024-01-26T07:48:12.368Z,7.73
2024-01-26T07:49:12.666Z,7.73
2024-01-26T07:50:12.366Z,7.76
2024-01-26T07:51:12.364Z,7.76
2024-01-26T07:52:12.385Z,7.80
2024-01-26T07:53:12.359Z,7.82
2024-01-26T07:54:12.405Z,7.85
2024-01-26T07:55:12.392Z,7.87
2024-01-26T07:56:12.418Z,7.90
2024-01-26T07:57:12.538Z,7.91
2024-01-26T07:58:12.441Z,7.93
2024-01-26T07:59:12.447Z,7.95
2024-01-26T08:00:12.535Z,7.95
2024-01-26T08:01:12.584Z,7.93
2024-01-26T08:02:12.521Z,7.93
2024-01-26T08:03:12.682Z,7.93
2024-01-26T08:04:12.595Z,7.93
2024-01-26T08:05:12.561Z,7.94
2024-01-26T08:06:12.741Z,7.95
2024-01-26T08:07:12.642Z,7.98
2024-01-26T08:08:12.637Z,8.00
2024-01-26T08:09:12.717Z,8.00
2024-01-26T08:10:14.504Z,8.00
2024-01-26T08:11:12.698Z,7.98
2024-01-26T08:12:24.116Z,8.00
2024-01-26T08:13:12.727Z,8.01
2024-01-26T08:14:12.739Z,8.00
2024-01-26T08:15:13.059Z,8.01
2024-01-26T08:16:12.784Z,8.05
2024-01-26T08:17:12.779Z,8.08
2024-01-26T08:18:12.864Z,8.10
2024-01-26T08:19:13.092Z,8.12
2024-01-26T08:20:13.417Z,8.15
2024-01-26T08:21:12.948Z,8.15
2024-01-26T08:22:12.873Z,8.16
2024-01-26T08:23:12.902Z,8.16
2024-01-26T08:24:13.009Z,8.16
2024-01-26T08:25:12.977Z,8.16
2024-01-26T08:26:12.951Z,8.19
2024-01-26T08:27:13.054Z,8.19
2024-01-26T08:28:13.054Z,8.23
2024-01-26T08:29:14.147Z,8.24
2024-01-26T08:30:13.106Z,8.28
2024-01-26T08:31:13.044Z,8.33
2024-01-26T08:32:13.055Z,8.31
2024-01-26T08:33:13.285Z,8.36
2024-01-26T08:34:13.381Z,8.37
2024-01-26T08:35:13.806Z,8.38
2024-01-26T08:36:13.294Z,8.42
2024-01-26T08:37:13.184Z,8.46
2024-01-26T08:38:13.184Z,8.55
2024-01-26T08:39:13.387Z,8.58
2024-01-26T08:40:13.196Z,8.60
2024-01-26T08:41:13.216Z,8.63
2024-01-26T08:42:13.363Z,8.64
2024-01-26T08:43:13.353Z,8.67
2024-01-26T08:44:13.291Z,8.69
2024-01-26T08:45:13.337Z,8.67
2024-01-26T08:46:13.318Z,8.70
2024-01-26T08:47:13.344Z,8.70
2024-01-26T08:48:13.504Z,8.74
2024-01-26T08:49:13.613Z,8.74
2024-01-26T08:50:13.373Z,8.74
2024-01-26T08:51:13.437Z,8.76
2024-01-26T08:52:13.442Z,8.76
2024-01-26T08:53:13.421Z,8.78
2024-01-26T08:54:13.454Z,8.79
2024-01-26T08:55:13.450Z,8.81
2024-01-26T08:56:13.481Z,8.84
2024-01-26T08:57:13.672Z,8.85
2024-01-26T08:58:13.531Z,8.85
2024-01-26T08:59:13.522Z,8.85
2024-01-26T09:00:13.732Z,8.92
2024-01-26T09:01:13.592Z,8.99
2024-01-26T09:02:13.593Z,9.00
2024-01-26T09:03:13.693Z,9.04
2024-01-26T09:04:13.681Z,9.06
2024-01-26T09:05:13.655Z,9.08
2024-01-26T09:06:13.792Z,9.14
2024-01-26T09:07:13.715Z,9.18
2024-01-26T09:08:13.692Z,9.19
2024-01-26T09:09:13.878Z,9.22
2024-01-26T09:10:13.728Z,9.26
2024-01-26T09:11:13.778Z,9.26
2024-01-26T09:12:13.923Z,9.29
2024-01-26T09:13:13.790Z,9.29
2024-01-26T09:14:13.803Z,9.29
2024-01-26T09:15:13.854Z,9.29
2024-01-26T09:16:13.893Z,9.29
2024-01-26T09:17:13.861Z,9.31
2024-01-26T09:18:14.491Z,9.31
2024-01-26T09:19:14.046Z,9.28
2024-01-26T09:20:14.046Z,9.29
2024-01-26T09:21:14.034Z,9.31
2024-01-26T09:22:13.953Z,9.32
2024-01-26T09:23:13.983Z,9.36
2024-01-26T09:24:14.064Z,9.37
2024-01-26T09:25:14.000Z,9.39
2024-01-26T09:26:14.004Z,9.39
2024-01-26T09:27:14.136Z,9.37
2024-01-26T09:28:14.031Z,9.39
2024-01-26T09:29:14.096Z,9.39
2024-01-26T09:30:14.127Z,9.44
2024-01-26T09:31:14.059Z,9.46
2024-01-26T09:32:14.092Z,9.46
2024-01-26T09:33:14.265Z,9.48
2024-01-26T09:34:14.284Z,9.48
2024-01-26T09:35:14.148Z,9.48
2024-01-26T09:36:14.221Z,9.46
2024-01-26T09:37:14.166Z,9.43
2024-01-26T09:38:14.189Z,9.44
2024-01-26T09:39:14.273Z,9.46
2024-01-26T09:40:14.247Z,9.47
2024-01-26T09:41:14.253Z,9.50
2024-01-26T09:42:14.380Z,9.55
2024-01-26T09:43:14.304Z,9.59
2024-01-26T09:44:14.342Z,9.61
2024-01-26T09:45:14.363Z,9.65
2024-01-26T09:46:14.371Z,9.68
2024-01-26T09:47:14.351Z,9.74
2024-01-26T09:48:14.502Z,9.77
2024-01-26T09:49:14.410Z,9.80
2024-01-26T09:50:14.423Z,9.83
2024-01-26T09:51:14.504Z,9.82
2024-01-26T09:52:14.553Z,9.83
2024-01-26T09:53:14.480Z,9.83
2024-01-26T09:54:14.630Z,9.83
2024-01-26T09:55:14.549Z,9.80
2024-01-26T09:56:14.535Z,9.79
2024-01-26T09:57:14.613Z,9.80
2024-01-26T09:58:14.570Z,9.83
2024-01-26T09:59:14.565Z,9.89
2024-01-26T10:00:14.649Z,9.92
2024-01-26T10:01:14.633Z,9.92
2024-01-26T10:02:14.616Z,9.91
2024-01-26T10:03:14.763Z,9.94
2024-01-26T10:04:14.713Z,9.95
2024-01-26T10:05:14.675Z,9.95
2024-01-26T10:06:14.810Z,9.95
2024-01-26T10:07:14.748Z,9.98
2024-01-26T10:08:14.711Z,10.01
2024-01-26T10:09:14.814Z,10.02
2024-01-26T10:10:14.738Z,10.01
2024-01-26T10:11:14.788Z,10.01
2024-01-26T10:12:14.846Z,10.01
2024-01-26T10:19:49.455Z,9.98
2024-01-26T10:20:50.454Z,9.98
2024-01-26T10:21:50.437Z,9.97
2024-01-26T10:22:50.451Z,9.97
2024-01-26T10:23:50.514Z,9.95
2024-01-26T10:24:50.503Z,9.95
2024-01-26T10:25:50.523Z,9.97
2024-01-26T10:26:50.567Z,9.99
2024-01-26T10:27:50.550Z,10.02
2024-01-26T10:28:50.542Z,10.04
2024-01-26T10:29:50.665Z,10.02
2024-01-26T10:30:50.588Z,10.04
2024-01-26T10:31:50.578Z,10.05
2024-01-26T10:32:56.816Z,10.07
2024-01-26T10:33:50.786Z,10.09
2024-01-26T10:34:50.921Z,10.10
2024-01-26T10:35:50.702Z,10.13
2024-01-26T10:36:51.048Z,10.16
2024-01-26T10:37:50.689Z,10.20
2024-01-26T10:38:52.808Z,10.26
2024-01-26T10:39:50.738Z,10.33
2024-01-26T10:40:50.733Z,10.35
2024-01-26T10:41:50.758Z,10.38
2024-01-26T10:42:50.770Z,10.41
2024-01-26T10:43:50.818Z,10.44
2024-01-26T10:44:50.837Z,10.48
2024-01-26T10:45:50.813Z,10.51
2024-01-26T10:46:50.838Z,10.51
2024-01-26T10:47:50.972Z,10.56
2024-01-26T10:48:51.076Z,10.63
2024-01-26T10:49:51.032Z,10.67
2024-01-26T10:50:51.107Z,10.69
2024-01-26T10:51:50.977Z,10.74
2024-01-26T10:52:51.270Z,10.76
2024-01-26T10:53:50.987Z,10.86
2024-01-26T10:54:50.972Z,10.90
2024-01-26T10:55:50.972Z,10.89
2024-01-26T10:56:51.015Z,10.90
2024-01-26T10:57:51.010Z,10.87
2024-01-26T10:58:51.047Z,10.89
2024-01-26T10:59:51.152Z,10.94
2024-01-26T11:00:51.111Z,10.99
2024-01-26T11:01:51.057Z,11.04
2024-01-26T11:02:51.144Z,11.02
2024-01-26T11:03:51.234Z,11.04
2024-01-26T11:04:51.105Z,11.04
2024-01-26T11:05:51.500Z,11.08
2024-01-26T11:06:51.272Z,11.14
2024-01-26T11:07:51.168Z,11.18
2024-01-26T11:08:55.868Z,11.22
2024-01-26T11:09:51.187Z,11.25
2024-01-26T11:10:51.217Z,11.26
2024-01-26T11:11:51.245Z,11.23
2024-01-26T11:12:51.244Z,11.18
2024-01-26T11:13:51.261Z,11.17
2024-01-26T11:14:51.320Z,11.15
2024-01-26T11:15:51.304Z,11.07
2024-01-26T11:16:51.342Z,11.05
2024-01-26T11:17:51.380Z,11.00
2024-01-26T11:18:51.376Z,10.96
2024-01-26T11:19:51.392Z,10.96
2024-01-26T11:20:51.417Z,10.96
2024-01-26T11:21:51.392Z,10.96
2024-01-26T11:22:51.390Z,10.94
2024-01-26T11:23:51.469Z,10.93
2024-01-26T11:24:51.422Z,10.92
2024-01-26T11:25:54.173Z,10.90
2024-01-26T11:26:51.534Z,10.87
2024-01-26T11:27:51.464Z,10.86
2024-01-26T11:28:51.491Z,10.82
2024-01-26T11:29:51.555Z,10.81
2024-01-26T11:30:51.539Z,10.79
2024-01-26T11:31:51.588Z,10.76
2024-01-26T11:32:51.670Z,10.72
2024-01-26T11:33:51.709Z,10.71
2024-01-26T11:34:51.663Z,10.69
2024-01-26T11:35:51.638Z,10.68
2024-01-26T11:36:51.607Z,10.68
2024-01-26T11:37:51.610Z,10.64
2024-01-26T11:38:51.666Z,10.67
2024-01-26T11:39:51.642Z,10.67
2024-01-26T11:40:51.667Z,10.67
2024-01-26T11:41:51.704Z,10.68
2024-01-26T11:42:51.698Z,10.68
2024-01-26T11:43:51.711Z,10.68
2024-01-26T11:44:51.825Z,10.67
2024-01-26T11:45:51.742Z,10.67
2024-01-26T11:46:51.773Z,10.67
2024-01-26T11:47:51.821Z,10.71
2024-01-26T11:48:51.973Z,10.69
2024-01-26T11:49:51.926Z,10.69
2024-01-26T11:50:51.857Z,10.71
2024-01-26T11:51:51.826Z,10.71
2024-01-26T11:52:51.846Z,10.72
2024-01-26T11:53:51.880Z,10.76
2024-01-26T11:54:51.900Z,10.76
2024-01-26T11:55:51.896Z,10.78
2024-01-26T11:56:51.942Z,10.78
2024-01-26T11:57:51.932Z,10.78
2024-01-26T11:58:51.971Z,10.79
2024-01-26T11:59:52.002Z,10.78
2024-01-26T12:00:52.036Z,10.76
2024-01-26T12:01:52.000Z,10.79
2024-01-26T12:02:52.134Z,10.81
2024-01-26T12:03:52.055Z,10.82
2024-01-26T12:04:52.082Z,10.82
2024-01-26T12:05:52.150Z,10.86
2024-01-26T12:06:52.136Z,10.87
2024-01-26T12:07:52.099Z,10.92
2024-01-26T12:08:52.147Z,10.90
2024-01-26T12:09:52.122Z,10.93
2024-01-26T12:10:52.162Z,10.92
2024-01-26T12:11:52.183Z,10.92
2024-01-26T12:12:52.193Z,10.92
2024-01-26T12:13:52.199Z,10.94
2024-01-26T12:14:52.201Z,10.96
2024-01-26T12:15:52.230Z,10.97
2024-01-26T12:16:52.226Z,10.97
2024-01-26T12:17:52.424Z,10.99
2024-01-26T12:18:52.824Z,10.99
2024-01-26T12:19:52.376Z,11.00
2024-01-26T12:20:52.350Z,10.99
2024-01-26T12:21:52.293Z,11.05
2024-01-26T12:22:52.330Z,11.07
2024-01-26T12:23:52.331Z,11.10
2024-01-26T12:24:52.336Z,11.11
2024-01-26T12:25:52.345Z,11.12
2024-01-26T12:26:52.402Z,11.15
2024-01-26T12:27:52.402Z,11.17
2024-01-26T12:28:52.402Z,11.18
2024-01-26T12:29:52.425Z,11.19
2024-01-26T12:30:52.438Z,11.19
2024-01-26T12:31:52.494Z,11.18
2024-01-26T12:32:52.614Z,11.17
2024-01-26T12:33:52.584Z,11.12
2024-01-26T12:34:52.617Z,11.11
2024-01-26T12:35:52.829Z,11.10
2024-01-26T12:36:52.563Z,11.08
2024-01-26T12:37:52.532Z,11.05
2024-01-26T12:38:52.580Z,11.05
2024-01-26T12:39:52.561Z,11.07
2024-01-26T12:40:52.571Z,11.07
2024-01-26T12:41:52.706Z,11.05
2024-01-26T12:42:52.604Z,11.02
2024-01-26T12:43:52.616Z,10.97
2024-01-26T12:44:52.743Z,10.97
2024-01-26T12:45:52.713Z,10.97
2024-01-26T12:46:52.671Z,10.94
2024-01-26T12:47:52.748Z,10.92
2024-01-26T12:48:52.925Z,10.87
2024-01-26T12:49:52.746Z,10.87
2024-01-26T12:50:52.768Z,10.82
2024-01-26T12:51:52.735Z,10.81
2024-01-26T12:52:52.762Z,10.81
2024-01-26T12:53:52.790Z,10.79
2024-01-26T12:54:52.815Z,10.81
2024-01-26T12:55:52.804Z,10.76
2024-01-26T12:56:52.857Z,10.76
2024-01-26T12:57:52.832Z,10.75
2024-01-26T12:58:52.868Z,10.72
2024-01-26T12:59:52.985Z,10.71
2024-01-26T13:00:52.907Z,10.67
2024-01-26T13:01:52.895Z,10.61
2024-01-26T13:02:53.013Z,10.60
2024-01-26T13:03:52.976Z,10.57
2024-01-26T13:04:53.025Z,10.51
2024-01-26T13:05:53.152Z,10.49
2024-01-26T13:06:53.051Z,10.44
2024-01-26T13:07:52.996Z,10.37
2024-01-26T13:08:53.042Z,10.31
2024-01-26T13:09:53.342Z,10.25
2024-01-26T13:10:53.039Z,10.20
2024-01-26T13:11:53.193Z,10.16
2024-01-26T13:12:53.080Z,10.13
2024-01-26T13:13:53.099Z,10.07
2024-01-26T13:15:53.132Z,9.99
2024-01-26T13:16:53.128Z,9.94
2024-01-26T13:17:53.227Z,9.91
2024-01-26T13:18:53.326Z,9.89
2024-01-26T13:20:00.831Z,9.87